Terminal Aerodrome Forecast
Issued by NWS

Home | Current Version | Previous Version | Graphics & Text | Print | Product List | Glossary On
Versions: 1 2 3 4 5 6 7 8 9 10 11 12 13 14 15 16 17 18 19 20 21 22 23 24
000
FTUS43 KMPX 240940 AAB
TAFRWF
TAF AMD
KRWF 240940Z 2410/2506 27010KT 1SM BR BKN002 OVC007
      TEMPO 2410/2413 1/4SM FG VV002
     FM241400 15007KT 4SM BR BKN250
     FM241600 18014G23KT P6SM SCT050 BKN250
     FM242100 19014G22KT P6SM VCSH SCT050 BKN200
     FM250000 19008KT P6SM SHRA BKN090
     FM250400 25005KT P6SM SHRA OVC025=

USA.gov is the U.S. government's official web portal to all federal, state and local government web resources and services.